Time;durP1;ratioP1;P1;durP2;ratioP2;P2;SDS_P1;SDS_P2;PMS_P1;PMS_P2;Temp;Humidity;BMP_temperature;BMP_pressure;BME280_temperature;BME280_humidity;BME280_pressure;Samples;Min_cycle;Max_cycle;Signal;HPM_P1;HPM_P2
2022/05/27 00:01:54;;;;;;;1.85;1.65;;;;;;;;;;4979201;28;20026;-78
2022/05/27 00:04:20;;;;;;;1.77;1.67;;;;;;;;;;4984051;28;20041;-77
2022/05/27 00:06:46;;;;;;;2.90;1.50;;;13.30;99.90;;;;;;4974224;28;20093;-77
2022/05/27 00:09:12;;;;;;;2.65;1.90;;;;;;;;;;4979462;28;20026;-77
2022/05/27 00:11:39;;;;;;;6.35;1.95;;;;;;;;;;4980572;28;20035;-78
2022/05/27 00:14:05;;;;;;;2.83;2.10;;;;;;;;;;4989053;28;20085;-77
2022/05/27 00:16:31;;;;;;;3.08;2.13;;;;;;;;;;4990142;28;20471;-77
2022/05/27 00:18:58;;;;;;;3.05;1.73;;;;;;;;;;4990228;28;20108;-78
2022/05/27 00:21:24;;;;;;;1.77;1.67;;;;;;;;;;4976295;28;20022;-78
2022/05/27 00:23:50;;;;;;;1.80;1.70;;;;;;;;;;4988540;28;20084;-77
2022/05/27 00:26:16;;;;;;;4.30;2.03;;;;;;;;;;4984151;28;20042;-77
2022/05/27 00:28:42;;;;;;;2.13;1.98;;;;;;;;;;4982162;28;20027;-78
2022/05/27 00:31:08;;;;;;;1.95;1.83;;;;;;;;;;4990265;28;20389;-78
2022/05/27 00:33:35;;;;;;;3.35;1.92;;;;;;;;;;4988372;28;20030;-77
2022/05/27 00:36:01;;;;;;;4.78;2.65;;;;;;;;;;4978885;28;20154;-78
2022/05/27 00:38:27;;;;;;;3.13;1.90;;;;;;;;;;4986659;28;20037;-78
2022/05/27 00:40:54;;;;;;;2.70;2.00;;;;;;;;;;4986856;28;20037;-77
2022/05/27 00:43:20;;;;;;;4.03;2.13;;;;;;;;;;4980530;28;20185;-78
2022/05/27 00:46:02;;;;;;;2.45;2.22;;;13.10;93.80;;;;;;4984568;28;20047;-77
2022/05/27 00:48:28;;;;;;;1.90;1.75;;;;;;;;;;4980571;28;20018;-77
2022/05/27 00:50:55;;;;;;;2.97;1.90;;;;;;;;;;4990676;28;20034;-78
2022/05/27 00:53:24;;;;;;;1.85;1.75;;;;;;;;;;4989562;28;20483;-79
2022/05/27 00:55:54;;;;;;;2.50;2.30;;;;;;;;;;4987021;28;20106;-78
2022/05/27 00:58:23;;;;;;;1.75;1.65;;;;;;;;;;4989594;28;20057;-77
2022/05/27 01:00:49;;;;;;;2.97;2.47;;;;;;;;;;4989543;28;20049;-78
2022/05/27 01:03:15;;;;;;;2.45;1.92;;;;;;;;;;4976029;28;20043;-78
2022/05/27 01:05:44;;;;;;;2.28;2.17;;;;;;;;;;4989251;28;20034;-78
2022/05/27 01:08:10;;;;;;;2.35;2.10;;;;;;;;;;4985658;28;20481;-78
2022/05/27 01:10:45;;;;;;;8.90;2.60;;;;;;;;;;4989397;28;20113;-78
2022/05/27 01:13:25;;;;;;;2.90;2.67;;;;;;;;;;4989651;28;20137;-77
2022/05/27 01:16:03;;;;;;;3.05;2.33;;;;;;;;;;4986519;28;20034;-77
2022/05/27 01:20:18;;;;;;;2.15;2.05;;;;;;;;;;4984431;28;20554;-78
2022/05/27 01:21:19;;;;;;;1.85;1.73;;;;;;;;;;4989814;28;20114;-78
2022/05/27 01:23:45;;;;;;;2.45;2.20;;;;;;;;;;4987781;28;20030;-77
2022/05/27 01:26:11;;;;;;;2.63;2.42;;;;;;;;;;4989042;28;20574;-78
2022/05/27 01:28:41;;;;;;;2.10;1.90;;;;;;;;;;4987997;28;20364;-79
2022/05/27 01:31:18;;;;;;;2.97;2.20;;;;;;;;;;4988879;28;20038;-77
2022/05/27 01:33:44;;;;;;;2.00;1.90;;;;;;;;;;4986678;28;20102;-77
2022/05/27 01:36:20;;;;;;;5.05;2.47;;;12.50;94.10;;;;;;4989851;28;20110;-78
2022/05/27 01:38:46;;;;;;;2.35;2.15;;;;;;;;;;4978282;28;20085;-78
2022/05/27 01:41:14;;;;;;;3.20;2.60;;;;;;;;;;4986809;28;20030;-78
2022/05/27 01:43:56;;;;;;;2.42;2.00;;;;;;;;;;4987191;28;20085;-78
2022/05/27 01:46:33;;;;;;;1.77;1.67;;;;;;;;;;4987344;28;20608;-78
2022/05/27 01:49:08;;;;;;;1.90;1.80;;;;;;;;;;4973606;28;20034;-77
2022/05/27 01:51:41;;;;;;;2.10;1.90;;;;;;;;;;4988271;28;20638;-78
2022/05/27 01:54:12;;;;;;;5.03;1.63;;;;;;;;;;4976732;28;20410;-78
2022/05/27 01:56:43;;;;;;;3.28;1.80;;;;;;;;;;4986361;28;20688;-78
2022/05/27 01:59:13;;;;;;;2.40;1.73;;;;;;;;;;4982883;28;20038;-78
2022/05/27 02:01:50;;;;;;;3.10;1.95;;;;;;;;;;4983902;28;20034;-78
2022/05/27 02:04:26;;;;;;;2.33;1.60;;;12.80;95.20;;;;;;4986037;28;20034;-79
2022/05/27 02:07:08;;;;;;;3.08;1.95;;;12.90;95.00;;;;;;4984743;28;20557;-78
2022/05/27 02:09:47;;;;;;;2.58;2.38;;;12.80;95.30;;;;;;4968680;28;20022;-78
2022/05/27 02:12:35;;;;;;;2.45;2.25;;;;;;;;;;4988341;28;20034;-78
2022/05/27 02:15:11;;;;;;;4.97;2.20;;;;;;;;;;4972525;28;20073;-78
2022/05/27 02:17:39;;;;;;;2.67;2.20;;;;;;;;;;4981977;28;20030;-78
2022/05/27 02:20:07;;;;;;;3.45;2.20;;;;;;;;;;4982194;28;20035;-78
2022/05/27 02:22:36;;;;;;;2.22;2.03;;;;;;;;;;4986291;28;20073;-79
2022/05/27 02:25:05;;;;;;;2.92;2.50;;;;;;;;;;4988339;28;20048;-78
2022/05/27 02:27:36;;;;;;;2.38;2.17;;;12.80;94.50;;;;;;4987610;28;20096;-78
2022/05/27 02:30:06;;;;;;;3.83;3.33;;;;;;;;;;4971963;28;20403;-78
2022/05/27 02:32:35;;;;;;;2.05;1.88;;;;;;;;;;4984671;28;20022;-78
2022/05/27 02:35:07;;;;;;;2.22;2.03;;;;;;;;;;4983336;28;20046;-78
2022/05/27 02:37:35;;;;;;;2.28;2.08;;;;;;;;;;4977060;28;20037;-78
2022/05/27 02:40:01;;;;;;;;;;;;;;;;;;4985738;28;20041;-79
2022/05/27 02:42:35;;;;;;;2.15;1.83;;;;;;;;;;4983887;28;19918;-78
2022/05/27 02:45:08;;;;;;;1.90;1.80;;;;;;;;;;4987357;28;20551;-78
2022/05/27 02:47:49;;;;;;;4.38;1.80;;;;;;;;;;4987372;28;20030;-79
2022/05/27 02:50:15;;;;;;;1.75;1.65;;;;;;;;;;4981121;28;20039;-78
2022/05/27 02:52:56;;;;;;;2.15;1.98;;;;;;;;;;4977383;28;20034;-78
2022/05/27 02:55:31;;;;;;;2.15;1.83;;;;;;;;;;4987698;28;20022;-78
2022/05/27 02:57:59;;;;;;;3.78;3.50;;;;;;;;;;4982877;28;20034;-77
2022/05/27 03:00:29;;;;;;;1.80;1.60;;;;;;;;;;4983910;28;20041;-78
2022/05/27 03:02:59;;;;;;;3.70;2.00;;;;;;;;;;4985449;28;20515;-78
2022/05/27 03:05:31;;;;;;;2.17;2.03;;;;;;;;;;4979830;28;20043;-79
2022/05/27 03:08:03;;;;;;;2.53;2.33;;;;;;;;;;4979402;28;20117;-78
2022/05/27 03:10:36;;;;;;;3.70;2.55;;;;;;;;;;4987008;28;20115;-78
2022/05/27 03:13:02;;;;;;;1.67;1.48;;;;;;;;;;4975513;28;20045;-77
2022/05/27 03:15:47;;;;;;;2.10;1.98;;;;;;;;;;4982409;28;20026;-78
2022/05/27 03:18:16;;;;;;;2.92;2.28;;;;;;;;;;4980419;28;20058;-78
2022/05/27 03:20:47;;;;;;;5.35;2.22;;;;;;;;;;4986858;28;20034;-78
2022/05/27 03:23:33;;;;;;;2.80;1.92;;;;;;;;;;4983079;28;20030;-78
2022/05/27 03:26:01;;;;;;;1.70;1.60;;;;;;;;;;4980999;28;20050;-78
2022/05/27 03:28:46;;;;;;;2.55;2.05;;;;;;;;;;4975721;28;20089;-78
2022/05/27 03:31:14;;;;;;;1.92;1.83;;;;;;;;;;4980160;28;20653;-78
2022/05/27 03:33:49;;;;;;;2.95;2.08;;;;;;;;;;4986589;28;20037;-78
2022/05/27 03:36:22;;;;;;;2.33;2.13;;;;;;;;;;4984565;28;20035;-78
2022/05/27 03:38:55;;;;;;;7.07;1.92;;;;;;;;;;4982890;28;20019;-78
2022/05/27 03:41:26;;;;;;;2.17;2.00;;;;;;;;;;4987004;28;20511;-79
2022/05/27 03:43:53;;;;;;;3.75;1.65;;;;;;;;;;4986287;28;20031;-78
2022/05/27 03:46:28;;;;;;;2.40;2.20;;;;;;;;;;4986411;28;20524;-78
2022/05/27 03:48:54;;;;;;;2.33;1.95;;;;;;;;;;4976633;28;20030;-78
2022/05/27 03:51:22;;;;;;;3.55;2.17;;;;;;;;;;4991600;28;20027;-78
2022/05/27 03:54:03;;;;;;;4.45;2.33;;;;;;;;;;4978493;28;20081;-78
2022/05/27 03:56:40;;;;;;;3.03;2.65;;;;;;;;;;4985303;28;20022;-78
2022/05/27 03:59:07;;;;;;;2.40;2.20;;;;;;;;;;4984967;28;20042;-78
2022/05/27 04:01:35;;;;;;;3.00;2.80;;;;;;;;;;4988613;28;20022;-77
2022/05/27 04:04:01;;;;;;;2.17;1.95;;;;;;;;;;4975885;28;20042;-78
2022/05/27 04:06:28;;;;;;;3.43;3.00;;;;;;;;;;4990931;28;20034;-77
2022/05/27 04:08:54;;;;;;;1.92;1.77;;;;;;;;;;4979687;28;20259;-78
2022/05/27 04:11:20;;;;;;;3.42;2.15;;;;;;;;;;4985410;28;20035;-78
2022/05/27 04:13:47;;;;;;;2.83;2.25;;;;;;;;;;4988205;28;20089;-78
2022/05/27 04:16:13;;;;;;;2.38;2.17;;;;;;;;;;4987436;28;20411;-78
2022/05/27 04:18:39;;;;;;;2.17;1.90;;;;;;;;;;4989539;28;20511;-77
2022/05/27 04:21:05;;;;;;;2.42;2.22;;;;;;;;;;4985958;28;20034;-78
2022/05/27 04:23:31;;;;;;;2.00;1.80;;;;;;;;;;4981591;28;20562;-79
2022/05/27 04:25:57;;;;;;;3.10;1.80;;;;;;;;;;4982354;28;20042;-79
2022/05/27 04:28:24;;;;;;;2.20;2.00;;;;;;;;;;4990237;28;20046;-77
2022/05/27 04:30:50;;;;;;;3.50;2.20;;;;;;;;;;4988237;28;20034;-79
2022/05/27 04:33:15;;;;;;;2.15;1.95;;;;;;;;;;4991006;28;20110;-78
2022/05/27 04:35:42;;;;;;;2.65;2.42;;;;;;;;;;4986966;28;20496;-78
2022/05/27 04:38:08;;;;;;;2.20;2.00;;;;;;;;;;4984532;28;20501;-79
2022/05/27 04:40:35;;;;;;;4.93;2.78;;;;;;;;;;4979427;28;20065;-78
2022/05/27 04:43:02;;;;;;;5.20;2.60;;;;;;;;;;4989303;28;20133;-77
2022/05/27 04:45:28;;;;;;;2.95;2.08;;;;;;;;;;4972720;28;20053;-77
2022/05/27 04:47:54;;;;;;;2.88;2.38;;;;;;;;;;4984165;28;20108;-78
2022/05/27 04:50:21;;;;;;;2.70;2.42;;;;;;;;;;4982810;28;20661;-78
2022/05/27 04:52:47;;;;;;;2.25;2.05;;;;;;;;;;4985792;28;20073;-78
2022/05/27 04:55:15;;;;;;;2.28;2.08;;;12.40;95.70;;;;;;4989638;28;20105;-78
2022/05/27 04:57:43;;;;;;;3.90;2.03;;;;;;;;;;4987449;28;20039;-78
2022/05/27 05:00:12;;;;;;;7.95;2.20;;;;;;;;;;4977239;28;20031;-78
2022/05/27 05:02:38;;;;;;;3.97;2.08;;;;;;;;;;4988283;28;20498;-78
2022/05/27 05:05:05;;;;;;;2.60;2.33;;;12.70;96.80;;;;;;4988858;28;20527;-78
2022/05/27 05:07:31;;;;;;;2.38;2.17;;;;;;;;;;4988941;28;20121;-78
2022/05/27 05:09:58;;;;;;;2.80;2.10;;;;;;;;;;4986285;28;20018;-78
2022/05/27 05:12:24;;;;;;;3.47;2.17;;;;;;;;;;4989196;28;20457;-78
2022/05/27 05:14:51;;;;;;;2.30;2.10;;;;;;;;;;4988879;28;20031;-78
2022/05/27 05:17:16;;;;;;;2.90;2.33;;;;;;;;;;4986911;28;20030;-78
2022/05/27 05:19:43;;;;;;;2.22;1.95;;;;;;;;;;4987113;28;20069;-78
2022/05/27 05:22:09;;;;;;;2.20;2.00;;;;;;;;;;4975179;28;20038;-78
2022/05/27 05:24:34;;;;;;;4.57;1.88;;;13.60;98.70;;;;;;4989516;28;20036;-78
2022/05/27 05:27:00;;;;;;;4.38;2.28;;;;;;;;;;4981290;28;20038;-78
2022/05/27 05:29:26;;;;;;;2.92;2.30;;;;;;;;;;4987869;28;20030;-78
2022/05/27 05:31:52;;;;;;;5.10;2.35;;;;;;;;;;4988925;28;20491;-78
2022/05/27 05:34:18;;;;;;;5.40;2.22;;;;;;;;;;4989069;28;20113;-78
2022/05/27 05:36:44;;;;;;;3.20;2.35;;;;;;;;;;4973538;28;20034;-78
2022/05/27 05:39:10;;;;;;;2.17;1.98;;;;;;;;;;4989851;28;20034;-77
2022/05/27 05:41:38;;;;;;;3.03;2.25;;;;;;;;;;4976070;28;20129;-79
2022/05/27 05:44:05;;;;;;;2.95;2.05;;;;;;;;;;4985266;28;20034;-78
2022/05/27 05:46:33;;;;;;;5.80;2.42;;;13.90;95.00;;;;;;4988941;28;20038;-78
2022/05/27 05:48:59;;;;;;;2.38;2.17;;;;;;;;;;4983384;28;20046;-79
2022/05/27 05:51:24;;;;;;;2.90;2.17;;;14.20;99.90;;;;;;4989832;28;20411;-78
2022/05/27 05:53:50;;;;;;;3.63;2.15;;;;;;;;;;4988466;28;20030;-78
2022/05/27 05:56:17;;;;;;;2.38;1.90;;;;;;;;;;4978096;28;20034;-78
2022/05/27 05:58:43;;;;;;;3.03;2.30;;;;;;;;;;4988067;28;20030;-78
2022/05/27 06:01:09;;;;;;;4.13;2.40;;;;;;;;;;4988582;28;20045;-78
2022/05/27 06:03:35;;;;;;;2.50;2.00;;;;;;;;;;4978401;28;20027;-79
2022/05/27 06:06:01;;;;;;;3.00;1.90;;;;;;;;;;4982447;28;20040;-78
2022/05/27 06:08:27;;;;;;;3.13;1.75;;;;;;;;;;4984580;28;20022;-77
2022/05/27 06:10:53;;;;;;;2.30;2.08;;;;;;;;;;4988066;28;20088;-78
2022/05/27 06:13:20;;;;;;;3.08;1.58;;;;;;;;;;4987231;28;20031;-78
2022/05/27 06:15:46;;;;;;;2.47;1.42;;;;;;;;;;4988301;28;20147;-78
2022/05/27 06:18:15;;;;;;;3.15;1.60;;;;;;;;;;4988064;28;20476;-79
2022/05/27 06:20:41;;;;;;;0.88;0.88;;;;;;;;;;4988041;28;20037;-78
2022/05/27 06:23:07;;;;;;;3.03;1.77;;;;;;;;;;4978857;28;20062;-78
2022/05/27 06:25:33;;;;;;;3.03;2.75;;;;;;;;;;4985159;28;20030;-78
2022/05/27 06:36:16;;;;;;;4.82;2.58;;;;;;;;;;4988731;28;20041;-78
2022/05/27 06:38:42;;;;;;;3.28;1.60;;;;;;;;;;4973967;28;20519;-79
2022/05/27 06:41:08;;;;;;;3.55;1.90;;;;;;;;;;4976717;28;20443;-79
2022/05/27 06:43:34;;;;;;;3.58;1.25;;;;;;;;;;4987495;28;20040;-78
2022/05/27 06:46:00;;;;;;;3.20;1.45;;;;;;;;;;4983311;28;20044;-78
2022/05/27 06:48:29;;;;;;;1.58;1.10;;;;;;;;;;4988602;28;20076;-79
2022/05/27 06:50:57;;;;;;;5.88;1.15;;;;;;;;;;4985075;28;20074;-78
2022/05/27 06:53:23;;;;;;;1.88;1.00;;;;;;;;;;4980729;28;20061;-78
2022/05/27 06:55:50;;;;;;;3.90;1.00;;;;;;;;;;4977530;28;20479;-78
2022/05/27 06:58:16;;;;;;;2.50;1.60;;;;;;;;;;4986800;28;20463;-78
2022/05/27 07:00:42;;;;;;;3.90;1.52;;;;;;;;;;4978789;28;20022;-78
2022/05/27 07:03:08;;;;;;;2.40;0.77;;;;;;;;;;4985128;28;20026;-78
2022/05/27 07:05:35;;;;;;;2.13;1.10;;;;;;;;;;4986860;28;20100;-79
2022/05/27 07:08:02;;;;;;;2.07;1.00;;;;;;;;;;4983635;28;20030;-79
2022/05/27 07:10:28;;;;;;;2.55;0.85;;;;;;;;;;4976092;28;20023;-78
2022/05/27 07:12:59;;;;;;;1.80;1.27;;;18.00;99.70;;;;;;4987615;28;20121;-79
2022/05/27 07:15:26;;;;;;;4.18;1.40;;;;;;;;;;4984520;28;20076;-79
2022/05/27 07:17:52;;;;;;;2.80;1.40;;;;;;;;;;4981068;28;20026;-78
2022/05/27 07:20:18;;;;;;;1.88;1.08;;;;;;;;;;4980644;28;20556;-78
2022/05/27 07:22:45;;;;;;;5.43;1.70;;;;;;;;;;4987433;28;20026;-77
2022/05/27 07:25:13;;;;;;;2.03;1.20;;;;;;;;;;4985950;28;20045;-78
2022/05/27 07:27:40;;;;;;;2.08;1.67;;;;;;;;;;4985567;28;20061;-78
2022/05/27 07:30:07;;;;;;;2.72;1.52;;;;;;;;;;4971616;28;20045;-77
2022/05/27 07:32:34;;;;;;;2.15;1.00;;;;;;;;;;4984467;28;20051;-78
2022/05/27 07:35:00;;;;;;;1.15;0.90;;;;;;;;;;4979866;28;20035;-78
2022/05/27 07:37:26;;;;;;;4.43;1.85;;;;;;;;;;4976679;28;20074;-78
2022/05/27 07:39:52;;;;;;;0.73;0.55;;;;;;;;;;4983348;28;20136;-78
2022/05/27 07:42:18;;;;;;;3.63;1.10;;;;;;;;;;4984219;28;20046;-80
2022/05/27 07:44:44;;;;;;;2.47;1.33;;;;;;;;;;4977197;28;20066;-79
2022/05/27 07:47:10;;;;;;;1.15;0.70;;;;;;;;;;4981155;28;20077;-79
2022/05/27 07:49:36;;;;;;;1.55;0.73;;;;;;;;;;4982057;28;20034;-78
2022/05/27 07:52:03;;;;;;;0.75;0.45;;;;;;;;;;4971933;28;20069;-78
2022/05/27 07:54:29;;;;;;;0.50;0.50;;;;;;;;;;4987384;28;20037;-79
2022/05/27 07:56:55;;;;;;;1.13;0.60;;;;;;;;;;4975055;28;20023;-79
2022/05/27 07:59:21;;;;;;;1.35;0.63;;;;;;;;;;4986391;28;20509;-78
2022/05/27 08:01:47;;;;;;;0.77;0.47;;;;;;;;;;4985344;28;20105;-78
2022/05/27 08:04:13;;;;;;;0.45;0.45;;;;;;;;;;4986886;28;20036;-79
2022/05/27 08:06:40;;;;;;;0.70;0.45;;;;;;;;;;4971585;28;20061;-79
2022/05/27 08:09:06;;;;;;;0.90;0.47;;;;;;;;;;4987638;28;20040;-78
2022/05/27 08:11:32;;;;;;;0.30;0.28;;;;;;;;;;4978837;28;20348;-79
2022/05/27 08:14:00;;;;;;;1.02;0.30;;;;;;;;;;4979173;28;20030;-78
2022/05/27 08:16:26;;;;;;;0.88;0.38;;;;;;;;;;4982200;28;20054;-78
2022/05/27 08:18:52;;;;;;;0.30;0.30;;;;;;;;;;4980239;28;20027;-78
2022/05/27 08:21:18;;;;;;;4.55;0.50;;;;;;;;;;4987881;28;20069;-78
2022/05/27 08:23:45;;;;;;;0.82;0.40;;;;;;;;;;4985927;28;20080;-79
2022/05/27 08:26:11;;;;;;;0.73;0.30;;;;;;;;;;4977458;28;20047;-78
2022/05/27 08:28:37;;;;;;;0.40;0.30;;;;;;;;;;4976453;28;20081;-78
2022/05/27 08:31:03;;;;;;;0.22;0.20;;;;;;;;;;4987463;28;20417;-79
2022/05/27 08:39:03;;;;;;;1.95;0.30;;;;;;;;;;4984048;28;20037;-78
2022/05/27 08:41:39;;;;;;;0.20;0.20;;;;;;;;;;4993309;28;20050;-79
2022/05/27 08:44:26;;;;;;;0.77;0.30;;;21.60;73.60;;;;;;4989938;28;20026;-79
2022/05/27 08:47:05;;;;;;;0.47;0.32;;;;;;;;;;4987662;28;20097;-79
2022/05/27 08:49:33;;;;;;;0.30;0.30;;;;;;;;;;4979609;28;20444;-79
2022/05/27 08:52:04;;;;;;;0.25;0.20;;;;;;;;;;4983956;28;20022;-78
2022/05/27 08:55:05;;;;;;;0.95;0.28;;;;;;;;;;4983249;28;20033;-79
2022/05/27 09:00:18;;;;;;;1.20;0.35;;;;;;;;;;4987712;28;20077;-79
2022/05/27 09:02:44;;;;;;;0.30;0.20;;;;;;;;;;4987597;28;20104;-78
2022/05/27 09:05:30;;;;;;;0.50;0.25;;;23.00;66.90;;;;;;4986895;28;20511;-79
2022/05/27 09:08:06;;;;;;;0.75;0.30;;;;;;;;;;4987024;28;20442;-79
2022/05/27 09:10:38;;;;;;;0.40;0.15;;;;;;;;;;4986317;28;20508;-78
2022/05/27 09:13:23;;;;;;;1.05;0.68;;;22.70;67.20;;;;;;4987062;28;20147;-79
2022/05/27 09:15:51;;;;;;;0.80;0.40;;;;;;;;;;4986435;28;20074;-79
2022/05/27 09:18:16;;;;;;;;;;;;;;;;;;4988015;28;20126;-78
2022/05/27 09:20:49;;;;;;;2.17;0.57;;;;;;;;;;4986015;28;19996;-79
2022/05/27 09:23:24;;;;;;;0.28;0.20;;;;;;;;;;4986956;28;20042;-80
2022/05/27 09:26:09;;;;;;;0.47;0.10;;;26.60;54.80;;;;;;4986574;28;20073;-79
2022/05/27 09:28:41;;;;;;;0.40;0.20;;;;;;;;;;4986395;28;20641;-79
2022/05/27 09:31:09;;;;;;;0.65;0.13;;;26.20;65.60;;;;;;4987024;28;20108;-79
2022/05/27 09:33:36;;;;;;;0.10;0.03;;;;;;;;;;4989628;28;20041;-79
2022/05/27 09:36:02;;;;;;;0.52;0.40;;;;;;;;;;4986267;28;20014;-79
2022/05/27 09:38:32;;;;;;;0.00;0.00;;;26.80;53.40;;;;;;4981622;28;20037;-79
2022/05/27 09:40:59;;;;;;;0.05;0.05;;;28.10;51.20;;;;;;4981305;28;20077;-79
2022/05/27 09:43:25;;;;;;;0.10;0.00;;;;;;;;;;4987910;28;20516;-79
2022/05/27 09:45:55;;;;;;;0.10;0.10;;;29.80;48.60;;;;;;4976091;28;20034;-79
2022/05/27 09:48:22;;;;;;;0.10;0.00;;;;;;;;;;4979344;28;20408;-80
2022/05/27 09:50:49;;;;;;;0.60;0.55;;;;;;;;;;4977599;28;20734;-79
2022/05/27 09:53:21;;;;;;;0.20;0.10;;;;;;;;;;4987990;28;20570;-79
2022/05/27 09:55:47;;;;;;;0.88;0.20;;;;;;;;;;4988473;28;20122;-79
2022/05/27 09:58:13;;;;;;;0.30;0.10;;;;;;;;;;4988662;28;20455;-80
2022/05/27 10:00:39;;;;;;;0.60;0.05;;;;;;;;;;4973098;28;20121;-79
2022/05/27 10:03:23;;;;;;;0.00;0.00;;;;;;;;;;4988902;28;20053;-80
2022/05/27 10:05:54;;;;;;;3.03;0.20;;;;;;;;;;4977989;28;20043;-80
2022/05/27 10:08:29;;;;;;;0.65;0.10;;;31.00;41.50;;;;;;4985001;28;20038;-79
2022/05/27 10:11:19;;;;;;;0.52;0.15;;;30.90;41.50;;;;;;4985441;28;20038;-79
2022/05/27 10:13:47;;;;;;;1.02;0.20;;;30.20;42.20;;;;;;4984509;28;20038;-79
2022/05/27 10:16:26;;;;;;;1.42;0.10;;;29.80;42.80;;;;;;4988409;28;20416;-80
2022/05/27 10:19:10;;;;;;;0.25;0.10;;;;;;;;;;4987458;28;20558;-79
2022/05/27 10:22:19;;;;;;;0.30;0.10;;;30.70;42.70;;;;;;4971012;28;20058;-80
2022/05/27 10:24:46;;;;;;;0.65;0.05;;;;;;;;;;4986205;28;20046;-79
2022/05/27 10:27:15;;;;;;;1.75;0.15;;;30.80;43.90;;;;;;4986176;28;20044;-80
2022/05/27 10:29:54;;;;;;;0.20;0.05;;;30.30;44.70;;;;;;4984997;28;20045;-79
2022/05/27 10:32:31;;;;;;;1.30;0.20;;;29.70;45.30;;;;;;4985945;28;20495;-79
2022/05/27 10:34:58;;;;;;;1.55;0.13;;;;;;;;;;4979197;28;20046;-80
2022/05/27 10:37:23;;;;;;;;;;;30.90;42.50;;;;;;4986614;28;20545;-79
2022/05/27 10:39:55;;;;;;;0.40;0.13;;;;;;;;;;4985986;28;19917;-79
2022/05/27 10:42:51;;;;;;;0.22;0.10;;;30.70;42.90;;;;;;4986031;28;20293;-80
2022/05/27 10:45:19;;;;;;;;;;;31.00;41.50;;;;;;4890445;29;20115;-80
2022/05/27 10:47:53;;;;;;;0.00;0.00;;;30.60;42.30;;;;;;4890092;29;19915;-80
2022/05/27 10:50:30;;;;;;;3.83;2.35;;;30.90;42.20;;;;;;4890429;29;20044;-80
2022/05/27 10:53:18;;;;;;;1.05;0.50;;;31.20;40.30;;;;;;4890457;29;20036;-80
2022/05/27 10:55:44;;;;;;;0.00;0.00;;;;;;;;;;4881491;29;20036;-80
2022/05/27 11:02:13;;;;;;;4.60;0.68;;;29.80;43.40;;;;;;4907153;29;20070;-79
2022/05/27 11:04:50;;;;;;;0.38;0.10;;;;;;;;;;4905160;29;20052;-80
2022/05/27 11:07:24;;;;;;;0.80;0.30;;;;;;;;;;4907915;29;20200;-80
2022/05/27 11:10:02;;;;;;;0.20;0.00;;;;;;;;;;4907636;29;20196;-79
2022/05/27 11:15:41;;;;;;;0.35;0.10;;;;;;;;;;4907340;29;20184;-79
2022/05/27 11:18:24;;;;;;;0.63;0.10;;;28.60;45.30;;;;;;4908457;29;20032;-79
2022/05/27 11:21:02;;;;;;;0.00;0.00;;;;;;;;;;4917474;28;20287;-79
2022/05/27 11:24:00;;;;;;;0.38;0.08;;;;;;;;;;4980142;28;20038;-79
2022/05/27 11:26:29;;;;;;;0.38;0.10;;;;;;;;;;5003391;28;20054;-79
2022/05/27 11:29:04;;;;;;;0.35;0.00;;;26.00;51.30;;;;;;5003709;28;20065;-79
2022/05/27 11:31:41;;;;;;;0.98;0.30;;;;;;;;;;5003858;28;20049;-79
2022/05/27 11:34:19;;;;;;;;;;;25.40;52.00;;;;;;5004272;28;20813;-79
2022/05/27 11:37:03;;;;;;;0.10;0.10;;;;;;;;;;5003865;28;19909;-80
2022/05/27 11:39:50;;;;;;;0.65;0.20;;;;;;;;;;5000926;28;20018;-80
2022/05/27 11:42:21;;;;;;;0.85;0.17;;;25.00;53.10;;;;;;5005046;28;20112;-80
2022/05/27 11:44:59;;;;;;;0.20;0.20;;;;;;;;;;5003155;28;20024;-79
2022/05/27 11:47:34;;;;;;;0.52;0.28;;;25.10;56.30;;;;;;5003559;28;20042;-79
2022/05/27 11:50:05;;;;;;;1.20;0.82;;;;;;;;;;5003083;28;20712;-79
2022/05/27 11:52:37;;;;;;;1.00;0.20;;;;;;;;;;4993443;28;20037;-79
2022/05/27 11:55:06;;;;;;;0.25;0.10;;;;;;;;;;5003832;28;20034;-79
2022/05/27 11:57:41;;;;;;;2.78;0.40;;;;;;;;;;5003900;28;20052;-79
2022/05/27 12:00:10;;;;;;;1.67;0.40;;;;;;;;;;5003976;28;20537;-80
2022/05/27 12:02:45;;;;;;;0.65;0.30;;;;;;;;;;4988933;28;20508;-78
2022/05/27 12:05:15;;;;;;;0.47;0.20;;;;;;;;;;4980363;28;20026;-79
2022/05/27 12:07:44;;;;;;;0.93;0.45;;;;;;;;;;4988821;28;20399;-79
2022/05/27 12:10:24;;;;;;;0.85;0.63;;;;;;;;;;4976814;28;20030;-79
2022/05/27 12:12:53;;;;;;;0.65;0.20;;;;;;;;;;4987602;28;20045;-79
2022/05/27 12:15:28;;;;;;;0.55;0.32;;;;;;;;;;4978903;28;20043;-80
2022/05/27 12:17:55;;;;;;;2.70;0.20;;;24.50;53.60;;;;;;4984321;28;20023;-79
2022/05/27 12:20:21;;;;;;;;;;;;;;;;;;4984643;28;20031;-79
2022/05/27 12:22:49;;;;;;;0.77;0.33;;;;;;;;;;4990051;28;19912;-79
2022/05/27 12:25:16;;;;;;;0.15;0.13;;;;;;;;;;4990399;28;20402;-79
2022/05/27 12:27:43;;;;;;;0.55;0.32;;;;;;;;;;4989973;28;20598;-79
2022/05/27 12:30:10;;;;;;;0.40;0.20;;;;;;;;;;4978357;28;20706;-79
2022/05/27 12:32:36;;;;;;;;;;;;;;;;;;4987747;28;20038;-79
2022/05/27 12:35:37;;;;;;;0.33;0.20;;;;;;;;;;4986413;28;19989;-79
2022/05/27 12:38:10;;;;;;;1.75;0.20;;;;;;;;;;4985035;28;20140;-80
2022/05/27 12:40:53;;;;;;;0.10;0.10;;;;;;;;;;4989882;28;20037;-79
2022/05/27 12:43:38;;;;;;;5.47;0.30;;;;;;;;;;4988641;28;20046;-80
2022/05/27 12:46:04;;;;;;;0.63;0.20;;;;;;;;;;4975115;28;20096;-80
2022/05/27 12:48:34;;;;;;;0.20;0.10;;;;;;;;;;4988990;28;20709;-79
2022/05/27 12:51:02;;;;;;;0.20;0.10;;;;;;;;;;4974407;28;20027;-79
2022/05/27 12:53:48;;;;;;;2.63;0.30;;;;;;;;;;4986363;28;20022;-80
2022/05/27 13:02:18;;;;;;;0.47;0.20;;;;;;;;;;4988606;28;20165;-79
2022/05/27 13:04:50;;;;;;;1.10;0.30;;;;;;;;;;4988125;28;20492;-79
2022/05/27 13:07:35;;;;;;;0.32;0.32;;;24.80;55.30;;;;;;4975937;28;20046;-79
2022/05/27 13:10:30;;;;;;;0.57;0.38;;;;;;;;;;4989443;28;20030;-79
2022/05/27 13:13:05;;;;;;;3.70;0.40;;;24.90;55.90;;;;;;4992158;28;20066;-79
2022/05/27 13:15:33;;;;;;;2.35;0.40;;;;;;;;;;4986647;28;20499;-80
2022/05/27 13:18:09;;;;;;;3.70;0.38;;;;;;;;;;4983064;28;20050;-79
2022/05/27 13:20:50;;;;;;;0.32;0.30;;;;;;;;;;4988925;28;20023;-79
2022/05/27 13:23:16;;;;;;;0.17;0.17;;;;;;;;;;4985909;28;20053;-79
2022/05/27 13:25:49;;;;;;;0.53;0.37;;;;;;;;;;4988264;28;20039;-80
2022/05/27 13:28:38;;;;;;;1.50;0.22;;;;;;;;;;4975587;28;20058;-79
2022/05/27 13:31:11;;;;;;;0.30;0.20;;;;;;;;;;4981308;28;20759;-79
2022/05/27 13:33:40;;;;;;;0.22;0.20;;;24.50;57.10;;;;;;4989058;28;20033;-79
2022/05/27 13:36:37;;;;;;;0.40;0.20;;;;;;;;;;4987358;28;20030;-79
2022/05/27 13:39:06;;;;;;;0.57;0.35;;;;;;;;;;4992717;28;20520;-79
2022/05/27 13:41:43;;;;;;;0.28;0.20;;;;;;;;;;4980901;28;20710;-79
2022/05/27 13:44:14;;;;;;;0.50;0.20;;;;;;;;;;4982427;28;20045;-79
2022/05/27 13:46:47;;;;;;;0.60;0.40;;;;;;;;;;4988199;28;20042;-79
2022/05/27 13:49:16;;;;;;;0.50;0.40;;;;;;;;;;4976364;28;20030;-79
2022/05/27 13:51:43;;;;;;;1.83;0.63;;;;;;;;;;4982783;28;20062;-79
2022/05/27 13:54:15;;;;;;;0.57;0.40;;;;;;;;;;4982594;28;20027;-78
2022/05/27 13:56:44;;;;;;;0.70;0.30;;;;;;;;;;4986721;28;20090;-78
2022/05/27 13:59:16;;;;;;;1.50;0.38;;;;;;;;;;4988268;28;20030;-78
2022/05/27 14:01:54;;;;;;;1.65;0.60;;;;;;;;;;4983400;28;20460;-78
2022/05/27 14:04:25;;;;;;;0.40;0.22;;;;;;;;;;4975475;28;20058;-79
2022/05/27 14:06:51;;;;;;;0.40;0.28;;;;;;;;;;4987766;28;20038;-78
2022/05/27 14:09:17;;;;;;;1.07;0.30;;;;;;;;;;4974397;28;20034;-78
2022/05/27 14:11:48;;;;;;;1.00;0.50;;;;;;;;;;4980517;28;20030;-79
2022/05/27 14:14:14;;;;;;;0.47;0.30;;;;;;;;;;4987353;28;20061;-78
2022/05/27 14:16:42;;;;;;;1.80;0.40;;;;;;;;;;4988518;28;20462;-78
2022/05/27 14:19:09;;;;;;;4.15;0.45;;;;;;;;;;4987156;28;20026;-78
2022/05/27 14:24:28;;;;;;;0.30;0.22;;;;;;;;;;4975071;28;20118;-79
2022/05/27 14:26:55;;;;;;;1.25;0.40;;;;;;;;;;4986488;28;20030;-78
2022/05/27 14:29:21;;;;;;;0.28;0.20;;;;;;;;;;4977875;28;20041;-78
2022/05/27 14:31:48;;;;;;;0.32;0.28;;;;;;;;;;4985446;28;20042;-78
2022/05/27 14:34:17;;;;;;;0.73;0.25;;;;;;;;;;4986556;28;20073;-77
2022/05/27 14:36:48;;;;;;;1.05;1.00;;;;;;;;;;4984299;28;20389;-78
2022/05/27 14:39:15;;;;;;;1.58;0.25;;;;;;;;;;4975153;28;20019;-78
2022/05/27 14:41:45;;;;;;;1.27;1.05;;;;;;;;;;4985510;28;20133;-78
2022/05/27 14:44:22;;;;;;;1.38;0.50;;;;;;;;;;4978660;28;20042;-78
2022/05/27 14:47:09;;;;;;;0.30;0.30;;;24.20;61.30;;;;;;4979593;28;20121;-78
2022/05/27 14:49:41;;;;;;;2.17;0.95;;;;;;;;;;4986256;28;20053;-78
2022/05/27 14:52:34;;;;;;;1.13;0.40;;;;;;;;;;4982594;28;20427;-78
2022/05/27 14:55:11;;;;;;;5.30;0.30;;;;;;;;;;4973244;28;20038;-78
2022/05/27 14:57:50;;;;;;;0.20;0.20;;;24.30;61.10;;;;;;4985512;28;20034;-78
2022/05/27 15:00:35;;;;;;;0.85;0.20;;;;;;;;;;4986187;28;20034;-78
2022/05/27 15:03:25;;;;;;;0.40;0.30;;;;;;;;;;4987719;28;20062;-78
2022/05/27 15:05:51;;;;;;;0.65;0.30;;;;;;;;;;4978537;28;20603;-78
2022/05/27 15:08:20;;;;;;;1.35;0.47;;;;;;;;;;4980307;28;20034;-78
2022/05/27 15:11:04;;;;;;;2.22;0.30;;;;;;;;;;4985914;28;20302;-78
2022/05/27 15:13:31;;;;;;;0.45;0.30;;;;;;;;;;4987323;28;20022;-78
2022/05/27 15:16:10;;;;;;;0.45;0.20;;;;;;;;;;4987287;28;20088;-78
2022/05/27 15:18:41;;;;;;;1.25;0.40;;;;;;;;;;4986963;28;20141;-78
2022/05/27 15:21:11;;;;;;;1.08;0.20;;;;;;;;;;4975252;28;20073;-78
2022/05/27 15:23:58;;;;;;;0.68;0.28;;;;;;;;;;4985596;28;20946;-79